• Join FlightAware (Why Join?)
  • Login
  • US Flag GB Flag 
00:09 EDT


 

Airport Tracker/Info


-or-


 

Live Flight TrackerFlight Track Log ✈ THY9 ✈ 05-May-2013 ✈ LTBA / IST - KLAX

Flight Track Log - Related Links

Times and Time Zones

All times are in EDT time to prevent confusion due to time zone crossing. See the THY9 flight status page for this flight to view local times or setup timezone preferences in your user account.

Time Position Orientation Groundspeed Altitude Reporting Facility
EDT Latitude Longitude Course Direction KTS MPH feet Rate Location/Type
05:55 41.5646 28.4524 335° Northwest  Level FlightAware Approximate
05:56 41.6820 28.3779 335° Northwest  Level FlightAware Approximate
05:57 41.7994 28.3031 335° Northwest  Level FlightAware Approximate
05:58 41.9166 28.2280 335° Northwest  Level FlightAware Approximate
05:59 42.0339 28.1527 334° Northwest  Level FlightAware Approximate
06:00 42.1511 28.0770 334° Northwest  Level FlightAware Approximate
06:01 42.2683 28.0011 334° Northwest  Level FlightAware Approximate
06:02 42.3854 27.9249 334° Northwest  Level FlightAware Approximate
06:03 42.5001 27.8499 334° Northwest  Level FlightAware Approximate
06:04 42.6173 27.7738 334° Northwest  Level FlightAware Approximate
06:05 42.7345 27.6973 334° Northwest  Level FlightAware Approximate
06:06 42.8516 27.6206 334° Northwest  Level FlightAware Approximate
06:07 42.9686 27.5435 334° Northwest  Level FlightAware Approximate
06:08 43.0856 27.4662 334° Northwest  Level FlightAware Approximate
06:09 43.2026 27.3885 334° Northwest  Level FlightAware Approximate
06:10 43.3195 27.3106 334° Northwest  Level FlightAware Approximate
06:11 43.4364 27.2324 334° Northwest  Level FlightAware Approximate
06:12 43.5532 27.1539 334° Northwest  Level FlightAware Approximate
06:13 43.6699 27.0750 334° Northwest  Level FlightAware Approximate
06:14 43.7866 26.9959 334° Northwest  Level FlightAware Approximate
06:15 43.9032 26.9164 334° Northwest  Level FlightAware Approximate
06:16 44.0198 26.8366 334° Northwest  Level FlightAware Approximate
06:17 44.1363 26.7565 334° Northwest  Level FlightAware Approximate
06:18 44.2528 26.6761 334° Northwest  Level FlightAware Approximate
06:19 44.3692 26.5954 334° Northwest  Level FlightAware Approximate
06:20 44.4855 26.5144 334° Northwest  Level FlightAware Approximate
06:21 44.6018 26.4330 334° Northwest  Level FlightAware Approximate
06:22 44.7181 26.3513 333° Northwest  Level FlightAware Approximate
06:23 44.8343 26.2693 333° Northwest  Level FlightAware Approximate
06:24 44.9504 26.1870 333° Northwest  Level FlightAware Approximate
06:25 45.0664 26.1043 333° Northwest  Level FlightAware Approximate
06:26 45.1824 26.0213 333° Northwest  Level FlightAware Approximate
06:27 45.2984 25.9379 333° Northwest  Level FlightAware Approximate
06:28 45.4143 25.8542 333° Northwest  Level FlightAware Approximate
06:29 45.5301 25.7702 333° Northwest  Level FlightAware Approximate
06:30 45.6458 25.6858 333° Northwest  Level FlightAware Approximate
06:31 45.7615 25.6010 333° Northwest  Level FlightAware Approximate
06:32 45.8772 25.5159 333° Northwest  Level FlightAware Approximate
06:33 45.9927 25.4305 333° Northwest  Level FlightAware Approximate
06:34 46.1082 25.3447 333° Northwest  Level FlightAware Approximate
06:35 46.2237 25.2585 333° Northwest  Level FlightAware Approximate
06:36 46.3390 25.1720 333° Northwest  Level FlightAware Approximate
06:37 46.4543 25.0851 333° Northwest  Level FlightAware Approximate
06:38 46.5696 24.9979 333° Northwest  Level FlightAware Approximate
06:39 46.6848 24.9102 332° Northwest  Level FlightAware Approximate
06:40 46.7999 24.8222 332° Northwest  Level FlightAware Approximate
06:41 46.9149 24.7338 332° Northwest  Level FlightAware Approximate
06:42 47.0299 24.6451 332° Northwest  Level FlightAware Approximate
06:43 47.1448 24.5559 332° Northwest  Level FlightAware Approximate
06:44 47.2596 24.4664 332° Northwest  Level FlightAware Approximate
06:44 46.5320 24.0230 332° Northwest 445 512 32,000  Level FlightAware
06:45 47.3744 24.3765 332° Northwest  Level FlightAware Approximate
06:45 46.5910 23.9520 320° Northwest 443 510 32,000  Level FlightAware
06:46 46.6670 23.8590 320° Northwest 32,000  Level FlightAware
06:46 46.7230 23.7910 320° Northwest 443 510 32,000  Level FlightAware
06:47 46.7980 23.6980 320° Northwest 443 510 32,000  Level FlightAware
06:48 46.8590 23.6230 320° Northwest 443 510 32,000  Level FlightAware
06:49 46.9250 23.5420 320° Northwest 443 510 32,000  Level FlightAware
06:49 46.9810 23.4720 320° Northwest 443 510 32,000  Level FlightAware
06:50 47.0560 23.3780 320° Northwest 442 509 32,000  Level FlightAware
06:51 47.1280 23.2890 320° Northwest 444 511 32,000  Level FlightAware
06:51 47.1900 23.2120 320° Northwest 444 511 32,000  Level FlightAware
06:52 47.2540 23.1310 319° Northwest 444 511 32,000  Level FlightAware
06:53 47.3250 23.0420 320° Northwest 444 511 32,000  Level FlightAware
06:53 47.3850 22.9650 319° Northwest 445 512 32,000  Level FlightAware
06:54 47.4570 22.8740 319° Northwest 446 513 32,000  Level FlightAware
06:55 47.5190 22.7960 320° Northwest 450 518 32,000  Level FlightAware
06:56 47.5830 22.7130 319° Northwest 452 520 32,000  Level FlightAware
06:56 47.6460 22.6330 319° Northwest 449 517 32,000  Level FlightAware
06:57 47.7190 22.5390 319° Northwest 452 520 32,000  Level FlightAware
06:58 47.7830 22.4590 320° Northwest 457 526 32,000  Level FlightAware
06:58 47.8630 22.3800 326° Northwest 469 540 32,000  Level FlightAware
06:59 47.9380 22.3120 329° Northwest 470 541 32,000  Level FlightAware
07:00 48.0120 22.2460 329° Northwest 473 544 32,000  Level FlightAware
07:00 48.0960 22.1700 329° Northwest 471 542 32,000  Level FlightAware
07:01 48.1730 22.1000 329° Northwest 475 547 32,000  Level FlightAware
07:02 48.2560 22.0240 329° Northwest 474 545 32,000  Level FlightAware
07:03 48.3330 21.9540 329° Northwest 470 541 32,000  Level FlightAware
07:03 48.4070 21.8850 328° Northwest 473 544 32,000  Level FlightAware
07:04 48.4870 21.8120 329° Northwest 475 547 32,000  Level FlightAware
07:05 48.5670 21.7340 327° Northwest 479 551 32,000  Level FlightAware
07:05 48.6390 21.6510 323° Northwest 471 542 32,000  Level FlightAware
07:06 48.7160 21.5630 323° Northwest 466 536 32,000  Level FlightAware
07:07 48.7850 21.4850 323° Northwest 464 534 32,000  Level FlightAware
07:07 48.8650 21.3960 324° Northwest 464 534 32,000  Level FlightAware
07:08 48.9360 21.3160 324° Northwest 465 535 32,000  Level FlightAware
07:09 49.0580 21.1790 324° Northwest 463 533 32,000  Level FlightAware
07:11 49.1990 21.0170 323° Northwest 465 535 32,000  Level FlightAware
07:11 49.2710 20.9350 323° Northwest 464 534 32,000  Level FlightAware
07:12 49.3460 20.8480 323° Northwest 469 540 32,000  Level FlightAware
07:13 49.4070 20.7730 321° Northwest 462 532 32,000  Level FlightAware
07:13 49.4720 20.6890 320° Northwest 468 539 32,000  Level FlightAware
07:15 49.6040 20.5150 320° Northwest 470 541 32,000  Level FlightAware
07:16 49.6940 20.3950 319° Northwest 471 542 32,000  Level FlightAware
07:16 49.7610 20.3060 319° Northwest 471 542 32,000  Level FlightAware
07:17 49.8410 20.1990 319° Northwest 473 544 32,000  Level FlightAware
07:18 49.9080 20.1100 319° Northwest 472 543 32,000  Level FlightAware
07:18 49.9710 20.0250 319° Northwest 474 545 32,000  Level FlightAware
07:19 50.0450 19.9250 319° Northwest 472 543 32,000  Level FlightAware
07:20 50.1090 19.8380 319° Northwest 472 543 32,000  Level FlightAware
07:21 50.1870 19.7320 319° Northwest 474 545 32,000  Level FlightAware
07:21 50.2530 19.6420 319° Northwest 476 548 32,000  Level FlightAware
07:22 50.3160 19.5550 319° Northwest 476 548 32,000  Level FlightAware
07:23 50.3920 19.4500 319° Northwest 476 548 32,000  Level FlightAware
07:23 50.4580 19.3590 319° Northwest 476 548 32,000  Level FlightAware
07:24 50.5320 19.2570 319° Northwest 481 554 32,000  Level FlightAware
07:25 50.5980 19.1650 319° Northwest 483 556 32,000  Level FlightAware
07:25 50.6630 19.0740 318° Northwest 486 559 32,000  Level FlightAware
07:26 50.7410 18.9650 319° Northwest 488 562 32,000  Level FlightAware
07:27 50.8090 18.8680 318° Northwest 487 560 32,000  Level FlightAware
07:28 50.8830 18.7630 318° Northwest 488 562 32,000  Level FlightAware
07:28 50.9600 18.6540 318° Northwest 489 563 32,000  Level FlightAware
07:29 51.0260 18.5600 318° Northwest 487 560 32,000  Level FlightAware
07:30 51.0990 18.4540 318° Northwest 487 560 32,000  Level FlightAware
07:30 51.1610 18.3650 318° Northwest 487 560 32,000  Level FlightAware
07:31 51.2350 18.2580 318° Northwest 488 562 32,000  Level FlightAware
07:32 51.3000 18.1630 318° Northwest 488 562 32,000  Level FlightAware
07:32 51.3700 18.0610 318° Northwest 489 563 32,000  Level FlightAware
07:33 51.4460 17.9490 317° Northwest 489 563 32,000  Level FlightAware
07:34 51.5140 17.8490 318° Northwest 492 566 32,000  Level FlightAware
07:35 51.5870 17.7420 318° Northwest 491 565 32,000  Level FlightAware
07:35 51.6530 17.6420 317° Northwest 491 565 32,000  Level FlightAware
07:36 51.7290 17.5290 317° Northwest 491 565 32,000  Level FlightAware
07:37 51.7950 17.4300 317° Northwest 493 567 32,000  Level FlightAware
07:37 51.8670 17.3210 317° Northwest 495 570 32,000  Level FlightAware
07:38 51.9340 17.2200 317° Northwest 498 573 32,000  Level FlightAware
07:39 52.0090 17.1060 317° Northwest 498 573 32,000  Level FlightAware
07:39 52.0730 17.0090 317° Northwest 497 572 32,000  Level FlightAware
07:40 52.1460 16.8960 316° Northwest 493 567 32,000  Level FlightAware
07:41 52.2220 16.7800 317° Northwest 490 564 32,000  Level FlightAware
07:42 52.2850 16.6820 316° Northwest 490 564 32,000  Level FlightAware
07:42 52.3600 16.5660 317° Northwest 494 568 32,000  Level FlightAware
07:43 52.4260 16.4620 316° Northwest 494 568 32,000  Level FlightAware
07:44 52.4910 16.3600 316° Northwest 490 564 32,000  Level FlightAware
07:44 52.5660 16.2420 316° Northwest 492 566 32,000  Level FlightAware
07:45 52.6310 16.1380 316° Northwest 492 566 32,000  Level FlightAware
07:46 52.6950 16.0360 316° Northwest 491 565 32,000  Level FlightAware
07:46 52.7680 15.9200 316° Northwest 490 564 32,000  Level FlightAware
07:47 52.8330 15.8150 316° Northwest 486 559 32,000  Level FlightAware
07:48 52.9060 15.6990 316° Northwest 485 558 32,000  Level FlightAware
07:49 52.9710 15.5920 315° West 485 558 32,000  Level FlightAware
07:49 53.0350 15.4880 316° Northwest 486 559 32,000  Level FlightAware
07:50 53.1070 15.3710 316° Northwest 486 559 32,000  Level FlightAware
07:51 53.1680 15.2700 315° West 485 558 32,000  Level FlightAware
07:51 53.2340 15.1620 316° Northwest 484 557 32,000  Level FlightAware
07:52 53.3070 15.0410 315° West 482 555 32,000  Level FlightAware
07:53 53.3680 14.9380 315° West 480 552 32,000  Level FlightAware
07:53 53.4360 14.8240 315° West 481 554 32,000  Level FlightAware
07:54 53.4990 14.7180 315° West 478 550 32,000  Level FlightAware
07:55 53.5720 14.5950 315° West 475 547 32,000  Level FlightAware
07:56 53.6320 14.4940 315° West 476 548 32,000  Level FlightAware
07:56 53.6970 14.3820 314° West 475 547 32,000  Level FlightAware
07:57 53.7600 14.2690 313° West 480 552 32,000  Level FlightAware
07:58 53.8250 14.1630 316° Northwest 476 548 32,000  Level FlightAware
07:58 53.9020 14.0500 319° Northwest 476 548 32,000  Level FlightAware
07:59 53.9640 13.9570 319° Northwest 477 549 32,000  Level FlightAware
08:00 54.0400 13.8440 319° Northwest 479 551 32,000  Level FlightAware
08:00 54.1070 13.7440 319° Northwest 480 552 32,000  Level FlightAware
08:01 54.1740 13.6430 319° Northwest 482 555 32,000  Level FlightAware
08:02 54.2430 13.5390 319° Northwest 481 554 32,000  Level FlightAware
08:03 54.3150 13.4300 319° Northwest 482 555 32,000  Level FlightAware
08:03 54.3840 13.3260 319° Northwest 483 556 32,000  Level FlightAware
08:04 54.4590 13.2110 318° Northwest 484 557 32,000  Level FlightAware
08:05 54.5220 13.1130 318° Northwest 482 555 32,000  Level FlightAware
08:05 54.5990 12.9950 318° Northwest 483 556 32,000  Level FlightAware
08:06 54.6650 12.8920 318° Northwest 482 555 32,000  Level FlightAware
08:07 54.7380 12.7780 318° Northwest 482 555 32,000  Level FlightAware
08:07 54.8050 12.6740 318° Northwest 480 552 32,000  Level FlightAware
08:08 54.8700 12.5720 318° Northwest 478 550 32,000  Level FlightAware
08:09 54.9360 12.4670 318° Northwest 477 549 32,000  Level FlightAware
08:10 55.0090 12.3520 318° Northwest 477 549 32,000  Level FlightAware
08:10 55.0810 12.2370 318° Northwest 477 549 32,000  Level FlightAware
08:11 55.1460 12.1320 317° Northwest 476 548 32,000  Level FlightAware
08:11 55.1940 12.0550 318° Northwest 476 548 32,000  Level FlightAware
08:12 55.2590 11.9500 317° Northwest 474 545 32,000  Level FlightAware
08:13 55.3170 11.8550 317° Northwest 474 545 32,000  Level FlightAware
08:13 55.3700 11.7690 317° Northwest 474 545 32,000  Level FlightAware
08:14 55.4270 11.6760 317° Northwest 474 545 32,000  Level FlightAware
08:15 55.4980 11.5590 317° Northwest 472 543 32,000  Level FlightAware
08:15 55.5620 11.4530 317° Northwest 471 542 32,000  Level FlightAware
08:16 55.6270 11.3460 317° Northwest 473 544 32,000  Level FlightAware
08:17 55.7000 11.2240 317° Northwest 476 548 32,000  Level FlightAware
08:17 55.7640 11.1170 317° Northwest 475 547 32,000  Level FlightAware
08:18 55.8330 11.0000 316° Northwest 476 548 32,000  Level FlightAware
08:19 55.9000 10.8870 317° Northwest 476 548 32,000  Level FlightAware
08:20 55.9680 10.7700 316° Northwest 475 547 32,000  Level FlightAware
08:20 56.0330 10.6600 317° Northwest 473 544 32,000  Level FlightAware
08:21 56.0950 10.5530 316° Northwest 472 543 32,000  Level FlightAware
08:22 56.1650 10.4320 316° Northwest 473 544 32,000  Level FlightAware
08:22 56.2170 10.3410 316° Northwest 474 545 32,000  Level FlightAware
08:23 56.2990 10.1990 316° Northwest 473 544 32,000  Level FlightAware
08:24 56.3600 10.0910 316° Northwest 473 544 32,000  Level FlightAware
08:24 56.4320 9.9630 316° Northwest 472 543 32,000  Level FlightAware
08:25 56.4940 9.8540 316° Northwest 470 541 32,000  Level FlightAware
08:26 56.5570 9.7430 316° Northwest 468 539 32,000  Level FlightAware
08:27 56.6250 9.6200 315° West 468 539 32,000  Level FlightAware
08:27 56.6880 9.5060 315° West 468 539 32,000  Level FlightAware
08:28 56.7490 9.3970 316° Northwest 465 535 32,000  Level FlightAware
08:29 56.8150 9.2770 315° West 464 534 32,000  Level FlightAware
08:29 56.8660 9.1830 315° West 463 533 32,000  Level FlightAware
08:30 56.9440 9.0400 315° West 462 532 32,000  Level FlightAware
08:31 57.0050 8.9260 315° West 462 532 32,000  Level FlightAware
08:31 57.0730 8.8000 315° West 461 531 32,000  Level FlightAware
08:32 57.1340 8.6880 315° West 458 527 32,000  Level FlightAware
08:33 57.1930 8.5760 314° West 458 527 32,000  Level FlightAware
08:34 57.2570 8.4550 314° West 458 527 32,000  Level FlightAware
08:34 57.3160 8.3440 315° West 459 528 32,000  Level FlightAware
08:35 57.3850 8.2130 314° West 459 528 32,000  Level FlightAware
08:36 57.4410 8.1050 314° West 459 528 32,000  Level FlightAware
08:36 57.5020 7.9880 314° West 461 531 32,000  Level FlightAware
08:37 57.5670 7.8610 314° West 461 531 32,000  Level FlightAware
08:38 57.6260 7.7480 314° West 461 531 32,000  Level FlightAware
08:38 57.6850 7.6320 314° West 461 531 32,000  Level FlightAware
08:39 57.7520 7.5000 314° West 463 533 32,000  Level FlightAware
08:40 57.8060 7.3930 313° West 462 532 32,000  Level FlightAware
08:41 57.8750 7.2570 314° West 461 531 32,000  Level FlightAware
08:41 57.9330 7.1400 313° West 461 531 32,000  Level FlightAware
08:42 58.0010 7.0040 313° West 463 533 32,000  Level FlightAware
08:43 58.0580 6.8890 313° West 464 534 32,000  Level FlightAware
08:43 58.1180 6.7680 313° West 464 534 32,000  Level FlightAware
08:44 58.1810 6.6380 313° West 464 534 32,000  Level FlightAware
08:45 58.2410 6.5170 313° West 464 534 32,000  Level FlightAware
08:45 58.2980 6.3980 312° West 464 534 32,000  Level FlightAware
08:46 58.3650 6.2590 313° West 462 532 32,000  Level FlightAware
08:47 58.4230 6.1390 313° West 462 532 32,000  Level FlightAware
08:48 58.4850 6.0070 312° West 462 532 32,000  Level FlightAware
08:48 58.5420 5.8880 313° West 461 531 32,000  Level FlightAware
08:49 58.5990 5.7670 312° West 460 529 32,000  Level FlightAware
08:50 58.6640 5.6280 312° West 458 527 32,000  Level FlightAware
08:50 58.7210 5.5060 312° West 457 526 32,000  Level FlightAware
08:51 58.7820 5.3750 312° West 456 525 32,000 -1,500 Level FlightAware
08:51 58.8021 5.3192 312° West 482 555 30,500  Descending FlightAware UK
08:52 58.8390 5.2520 312° West 456 525 32,000 1,380 Climbing FlightAware
08:52 58.8940 5.1310 311° West 456 525 32,000 -1,320 Level FlightAware
08:53 58.9403 5.0302 311° West 484 557 30,500  Descending FlightAware UK
08:53 58.9580 4.9910 311° West 455 524 32,000  Climbing FlightAware
08:53 58.9818 4.9382 311° West 482 555 30,500 -2,700 Descending FlightAware UK
08:54 59.0070 4.8831 312° West 482 555 30,500 3,720 Level FlightAware UK
08:54 59.0130 4.8700 312° West 454 522 32,000  Climbing FlightAware
08:54 59.0407 4.8097 312° West 484 557 30,500 -2,520 Descending FlightAware UK
08:54 59.0649 4.7539 310° West 484 557 30,500 4,080 Level FlightAware UK
08:54 59.0680 4.7480 310° West 454 522 32,000  Climbing FlightAware
08:55 59.1225 4.6256 310° West 482 555 30,500  Descending FlightAware UK
08:55 59.1290 4.6130 310° West 452 520 32,000 1,860 Climbing FlightAware
08:56 59.1840 4.4890 311° West 452 520 32,000  Level FlightAware
08:57 59.2460 4.3490 311° West 453 521 32,000 -1,380 Level FlightAware
08:57 59.2799 4.2757 311° West 482 555 30,500  Descending FlightAware UK
08:57 59.3020 4.2230 311° West 453 521 32,000  Climbing FlightAware
08:58 59.3282 4.1634 311° West 482 555 30,500  Descending FlightAware UK
08:58 59.3620 4.0850 311° West 453 521 32,000  Climbing FlightAware
08:58 59.3856 4.0333 311° West 482 555 30,500  Descending FlightAware UK
08:59 59.4160 3.9610 311° West 451 519 32,000 1,380 Climbing FlightAware
08:59 59.4710 3.8360 311° West 451 519 32,000 -2,220 Level FlightAware
08:59 59.4747 3.8276 311° West 482 555 30,500 -3,780 Descending FlightAware UK
09:00 59.5061 3.7527 311° West 482 555 30,500 2,040 Level FlightAware UK
09:00 59.5330 3.6930 311° West 451 519 32,000 1,440 Climbing FlightAware
09:01 59.5850 3.5710 310° West 452 520 32,000 -1,620 Level FlightAware
09:01 59.6116 3.5086 310° West 482 555 30,500  Descending FlightAware UK
09:02 59.6450 3.4300 310° West 451 519 32,000  Climbing FlightAware
09:02 59.6757 3.3571 310° West 482 555 30,500  Descending FlightAware UK
09:02 59.6960 3.3090 310° West 452 520 32,000  Climbing FlightAware
09:03 59.7313 3.2239 310° West 480 552 30,500 -2,280 Descending FlightAware UK
09:03 59.7547 3.1674 310° West 484 557 30,500 4,980 Level FlightAware UK
09:03 59.7520 3.1780 310° West 452 520 32,000  Climbing FlightAware
09:03 59.7863 3.0912 310° West 482 555 30,500  Descending FlightAware UK
09:04 59.8100 3.0390 310° West 450 518 32,000  Climbing FlightAware
09:04 59.8584 2.9210 310° West 482 555 30,500  Descending FlightAware UK
09:04 59.8600 2.9180 310° West 450 518 32,000  Climbing FlightAware
09:05 59.8902 2.8438 310° West 482 555 30,500  Descending FlightAware UK
09:05 59.9000 2.8190 310° West 450 518 32,000  Climbing FlightAware
09:05 59.9465 2.7101 310° West 480 552 30,500 -2,160 Descending FlightAware UK
09:06 59.9698 2.6529 309° West 482 555 30,500 3,420 Level FlightAware UK
09:06 59.9560 2.6820 309° West 450 518 32,000  Climbing FlightAware
09:06 60.0167 2.5376 309° West 482 555 30,500  Descending FlightAware UK
09:06 60.0000 2.5720 309° West 450 518 32,000  Climbing FlightAware
09:07 60.0557 2.4410 309° West 482 555 30,500  Descending FlightAware UK
09:07 60.0450 2.4620 309° West 450 518 32,000  Climbing FlightAware
09:07 60.1182 2.2858 309° West 482 555 30,500  Descending FlightAware UK
09:08 60.0890 2.3520 309° West 450 518 32,000  Climbing FlightAware
09:08 60.1578 2.1886 309° West 482 555 30,500 -2,700 Descending FlightAware UK
09:08 60.1813 2.1300 309° West 482 555 30,500 2,640 Level FlightAware UK
09:09 60.1450 2.2140 309° West 450 518 32,000 1,560 Climbing FlightAware
09:09 60.1900 2.1030 309° West 450 518 32,000  Level FlightAware
09:10 60.2340 1.9920 309° West 450 518 32,000  Level FlightAware
09:11 60.2790 1.8810 309° West 450 518 32,000  Level FlightAware
09:11 60.3230 1.7700 309° West 450 518 32,000  Level FlightAware
09:12 60.4570 1.4360 309° West 453 521 32,000  Level FlightAware
09:13 60.5070 1.3000 307° West 453 521 32,000  Level FlightAware
09:13 60.5790 1.1200 309° West 456 525 32,000  Level FlightAware
09:14 60.6510 0.9340 308° West 449 517 32,000  Level FlightAware
09:15 60.7030 0.7980 308° West 451 519 32,000  Level FlightAware
09:16 60.7590 0.6480 307° West 450 518 32,000  Level FlightAware
09:17 60.8220 0.4770 307° West 451 519 32,000  Level FlightAware
09:17 60.8810 0.3230 308° West 451 519 32,000  Level FlightAware
09:18 60.9340 0.1790 307° West 451 519 32,000  Level FlightAware
09:19 60.9780 0.0590 307° West 451 519 32,000  Level FlightAware
09:19 61.0210 -0.0580 307° West 451 519 32,000  Level FlightAware
09:20 61.1130 -0.2280 318° Northwest 469 540 32,000  Level FlightAware
09:21 61.1740 -0.3510 316° Northwest 470 541 32,000  Level FlightAware
09:21 61.2390 -0.4850 315° West 470 541 32,000  Level FlightAware
09:22 61.3010 -0.6130 315° West 472 543 32,000  Level FlightAware
09:23 61.3470 -0.7050 316° Northwest 477 549 32,000  Level FlightAware
09:23 61.4140 -0.8300 318° Northwest 475 547 32,000  Level FlightAware
09:24 61.4780 -0.9540 317° Northwest 474 545 32,000  Level FlightAware
09:25 61.5410 -1.0770 317° Northwest 472 543 32,000  Level FlightAware
09:25 61.6120 -1.2160 317° Northwest 471 542 32,000  Level FlightAware
09:26 61.6780 -1.3460 317° Northwest 471 542 32,000 420 Level FlightAware
09:27 61.7470 -1.4850 316° Northwest 471 542 32,600 960 Climbing FlightAware
09:27 61.8100 -1.6100 317° Northwest 472 543 33,400 1,020 Climbing FlightAware
09:28 61.8740 -1.7390 316° Northwest 473 544 34,000 420 Climbing FlightAware
09:29 61.9460 -1.8860 316° Northwest 472 543 34,000  Level FlightAware
09:30 62.0060 -2.0080 316° Northwest 473 544 34,000  Level FlightAware
09:30 62.0780 -2.1560 316° Northwest 475 547 34,000  Level FlightAware
09:31 62.1410 -2.2850 316° Northwest 471 542 34,000  Level FlightAware
09:32 62.2040 -2.4150 316° Northwest 468 539 34,000  Level FlightAware
09:32 62.2750 -2.5640 316° Northwest 467 537 34,000  Level FlightAware
09:33 62.3280 -2.6750 316° Northwest 466 536 34,000  Level FlightAware
09:34 62.3880 -2.8030 315° West 465 535 34,000  Level FlightAware
09:34 62.4500 -2.9350 315° West 465 535 34,000  Level FlightAware
09:35 62.5200 -3.0840 316° Northwest 467 537 34,000  Level FlightAware
09:36 62.5800 -3.2130 315° West 466 536 34,000  Level FlightAware
09:36 62.6480 -3.3610 315° West 467 537 34,000  Level FlightAware
09:37 62.7080 -3.4930 315° West 468 539 34,000  Level FlightAware
09:38 62.7690 -3.6250 315° West 468 539 34,000  Level FlightAware
09:39 62.8380 -3.7800 314° West 470 541 34,000  Level FlightAware
09:39 62.8990 -3.9150 315° West 472 543 34,000  Level FlightAware
09:40 62.9510 -4.0310 315° West 473 544 34,000  Level FlightAware
09:40 62.9970 -4.1340 315° West 475 547 34,000  Level FlightAware
09:41 63.0570 -4.2700 314° West 473 544 34,000  Level FlightAware
09:42 63.1200 -4.4130 314° West 471 542 34,000  Level FlightAware
09:42 63.1730 -4.5350 314° West 473 544 34,000  Level FlightAware
09:43 63.2310 -4.6700 314° West 473 544 34,000  Level FlightAware
09:44 63.3000 -4.8290 314° West 473 544 34,000  Level FlightAware
09:44 63.3600 -4.9710 313° West 474 545 34,000  Level FlightAware
09:45 63.4200 -5.1110 314° West 474 545 34,000  Level FlightAware
09:46 63.4870 -5.2700 313° West 476 548 34,000  Level FlightAware
09:46 63.5490 -5.4170 313° West 475 547 34,000  Level FlightAware
09:47 63.6090 -5.5610 313° West 480 552 34,000  Level FlightAware
09:48 63.6760 -5.7240 313° West 481 554 34,000  Level FlightAware
09:48 63.7370 -5.8730 313° West 481 554 34,000  Level FlightAware
09:49 63.8050 -6.0390 313° West 480 552 34,000  Level FlightAware
09:50 63.8560 -6.1660 312° West 479 551 34,000  Level FlightAware
09:50 63.9160 -6.3140 313° West 482 555 34,000  Level FlightAware
09:51 63.9850 -6.4870 312° West 483 556 34,000  Level FlightAware
09:52 64.0410 -6.6300 312° West 485 558 34,000  Level FlightAware
09:53 64.1030 -6.7870 312° West 480 552 34,000  Level FlightAware
09:53 64.1540 -6.9170 312° West 480 552 34,000  Level FlightAware
09:54 64.2130 -7.0690 312° West 483 556 34,000  Level FlightAware
09:55 64.2790 -7.2420 311° West 483 556 34,000  Level FlightAware
09:55 64.3290 -7.3740 311° West 483 556 34,000  Level FlightAware
09:56 64.3790 -7.5070 311° West 483 556 34,000  Level FlightAware
09:57 64.4280 -7.6390 311° West 483 556 34,000  Level FlightAware
09:57 64.4780 -7.7720 311° West 483 556 34,000  Level FlightAware
09:58 64.5280 -7.9060 311° West 483 556 34,000  Level FlightAware
09:59 64.5900 -8.0730 311° West 483 556 34,000  Level FlightAware
09:59 64.6400 -8.2060 311° West 483 556 34,000  Level FlightAware
10:00 64.6900 -8.3400 311° West 483 556 34,000  Level FlightAware
10:01 64.7400 -8.4750 311° West 483 556 34,000  Level FlightAware
10:01 64.7900 -8.6090 311° West 483 556 34,000  Level FlightAware
10:02 64.8400 -8.7440 311° West 483 556 34,000  Level FlightAware
10:03 64.9020 -8.9130 311° West 483 556 34,000  Level FlightAware
10:04 64.9520 -9.0480 311° West 483 556 34,000  Level FlightAware
10:06 65.0802 -9.5416 302° West  Level Estimated
10:07 65.1476 -9.8056 301° West  Level Estimated
10:08 65.2146 -10.0709 301° West  Level Estimated
10:09 65.2810 -10.3376 301° West  Level Estimated
10:10 65.3470 -10.6057 301° West  Level Estimated
10:11 65.4126 -10.8751 300° West  Level Estimated
10:12 65.4776 -11.1458 300° West  Level Estimated
10:13 65.5421 -11.4179 300° West  Level Estimated
10:14 65.6062 -11.6913 300° West  Level Estimated
10:15 65.6698 -11.9660 299° West  Level Estimated
10:16 65.7328 -12.2422 299° West  Level Estimated
10:17 65.7954 -12.5196 299° West  Level Estimated
10:18 65.8575 -12.7984 299° West  Level Estimated
10:19 65.9190 -13.0786 298° West  Level Estimated
10:20 65.9801 -13.3601 298° West  Level Estimated
10:21 66.0406 -13.6429 298° West  Level Estimated
10:22 66.1006 -13.9271 298° West  Level Estimated
10:23 66.1601 -14.2126 297° West  Level Estimated
10:24 66.2191 -14.4994 297° West  Level Estimated
10:25 66.2775 -14.7876 297° West  Level Estimated
10:26 66.3354 -15.0772 297° West  Level Estimated
10:27 66.3927 -15.3680 296° West  Level Estimated
10:28 66.4495 -15.6602 296° West  Level Estimated
10:29 66.5058 -15.9537 296° West  Level Estimated
10:30 66.5615 -16.2486 296° West  Level Estimated
10:31 66.6166 -16.5447 295° West  Level Estimated
10:32 66.6712 -16.8422 295° West  Level Estimated
10:33 66.7252 -17.1410 295° West  Level Estimated
10:34 66.7787 -17.4411 294° West  Level Estimated
10:35 66.8316 -17.7425 294° West  Level Estimated
10:36 66.8839 -18.0452 294° West  Level Estimated
10:37 66.9356 -18.3491 294° West  Level Estimated
10:38 66.9867 -18.6544 293° West  Level Estimated
10:39 67.0373 -18.9609 293° West  Level Estimated
10:40 67.0873 -19.2687 293° West  Level Estimated
10:41 67.1366 -19.5778 292° West  Level Estimated
10:42 67.1854 -19.8881 292° West  Level Estimated
10:43 67.2336 -20.1997 292° West  Level Estimated
10:44 67.2811 -20.5125 292° West  Level Estimated
10:45 67.3281 -20.8266 291° West  Level Estimated
10:46 67.3744 -21.1419 291° West  Level Estimated
10:47 67.4201 -21.4584 291° West  Level Estimated
10:48 67.4652 -21.7761 290° West  Level Estimated
10:49 67.5097 -22.0950 290° West  Level Estimated
10:50 67.5535 -22.4151 290° West  Level Estimated
10:51 67.5967 -22.7364 290° West  Level Estimated
10:52 67.6393 -23.0588 289° West  Level Estimated
10:53 67.6812 -23.3825 289° West  Level Estimated
10:54 67.7225 -23.7072 289° West  Level Estimated
10:55 67.7631 -24.0331 288° West  Level Estimated
10:56 67.8031 -24.3601 288° West  Level Estimated
10:57 67.8424 -24.6882 288° West  Level Estimated
10:58 67.8811 -25.0174 287° West  Level Estimated
10:59 67.9191 -25.3477 287° West  Level Estimated
11:00 67.9565 -25.6791 287° West  Level Estimated
11:01 67.9931 -26.0116 287° West  Level Estimated
11:02 68.0291 -26.3451 286° West  Level Estimated
11:03 68.0645 -26.6796 286° West  Level Estimated
11:04 68.0991 -27.0151 286° West  Level Estimated
11:05 68.1330 -27.3516 285° West  Level Estimated
11:06 68.1663 -27.6891 285° West  Level Estimated
11:07 68.1989 -28.0276 285° West  Level Estimated
11:08 68.2308 -28.3671 284° West  Level Estimated
11:09 68.2620 -28.7075 284° West  Level Estimated
11:10 68.2925 -29.0488 284° West  Level Estimated
11:11 68.3223 -29.3910 283° West  Level Estimated
11:12 68.3514 -29.7341 283° West  Level Estimated
11:13 68.3798 -30.0780 283° West  Level Estimated
11:14 68.4075 -30.4228 282° West  Level Estimated
11:15 68.4345 -30.7685 282° West  Level Estimated
11:16 68.4607 -31.1149 282° West  Level Estimated
11:17 68.4863 -31.4622 281° West  Level Estimated
11:18 68.5111 -31.8102 281° West  Level Estimated
11:19 68.5352 -32.1590 281° West  Level Estimated
11:20 68.5586 -32.5085 281° West  Level Estimated
11:21 68.5812 -32.8587 280° West  Level Estimated
11:22 68.6032 -33.2096 280° West  Level Estimated
11:23 68.6244 -33.5612 280° West  Level Estimated
11:24 68.6448 -33.9135 279° West  Level Estimated
11:25 68.6645 -34.2664 279° West  Level Estimated
11:26 68.6835 -34.6199 279° West  Level Estimated
11:27 68.7018 -34.9740 278° West  Level Estimated
11:28 68.7193 -35.3286 278° West  Level Estimated
11:29 68.7360 -35.6838 278° West  Level Estimated
11:30 68.7520 -36.0395 277° West  Level Estimated
11:31 68.7673 -36.3957 277° West  Level Estimated
11:32 68.7818 -36.7524 277° West  Level Estimated
11:33 68.7956 -37.1096 276° West  Level Estimated
11:34 68.8086 -37.4672 276° West  Level Estimated
11:35 68.8208 -37.8252 276° West  Level Estimated
11:36 68.8324 -38.1835 275° West  Level Estimated
11:37 68.8431 -38.5423 275° West  Level Estimated
11:38 68.8531 -38.9013 275° West  Level Estimated
11:39 68.8623 -39.2607 274° West  Level Estimated
11:40 68.8708 -39.6204 274° West  Level Estimated
11:41 68.8785 -39.9803 274° West  Level Estimated
11:42 68.8855 -40.3405 273° West  Level Estimated
11:43 68.8917 -40.7009 273° West  Level Estimated
11:44 68.8971 -41.0614 273° West  Level Estimated
11:45 68.9018 -41.4222 272° West  Level Estimated
11:46 68.9057 -41.7831 272° West  Level Estimated
11:47 68.9088 -42.1441 272° West  Level Estimated
11:48 68.9112 -42.5051 271° West  Level Estimated
11:49 68.9128 -42.8663 271° West  Level Estimated
11:50 68.9137 -43.2275 271° West  Level Estimated
11:51 68.9138 -43.5887 270° West  Level Estimated
11:52 68.9131 -43.9499 270° West  Level Estimated
11:53 68.9117 -44.3110 270° West  Level Estimated
11:54 68.9095 -44.6721 269° West  Level Estimated
11:55 68.9065 -45.0331 269° West  Level Estimated
11:56 68.9028 -45.3940 269° West  Level Estimated
11:57 68.8983 -45.7548 268° West  Level Estimated
11:58 68.8930 -46.1154 268° West  Level Estimated
11:59 68.8870 -46.4758 268° West  Level Estimated
12:00 68.8802 -46.8361 267° West  Level Estimated
12:01 68.8727 -47.1961 267° West  Level Estimated
12:02 68.8644 -47.5558 267° West  Level Estimated
12:03 68.8553 -47.9152 266° West  Level Estimated
12:04 68.8455 -48.2744 266° West  Level Estimated
12:05 68.8349 -48.6332 265° West  Level Estimated
12:06 68.8236 -48.9916 265° West  Level Estimated
12:07 68.8115 -49.3497 265° West  Level Estimated
12:08 68.7986 -49.7074 264° West  Level Estimated
12:09 68.7850 -50.0647 264° West  Level Estimated
12:10 68.7707 -50.4215 264° West  Level Estimated
12:11 68.7556 -50.7778 263° West  Level Estimated
12:12 68.7398 -51.1336 263° West  Level Estimated
12:13 68.7232 -51.4889 263° West  Level Estimated
12:14 68.7059 -51.8437 263° West  Level Estimated
12:15 68.6878 -52.1979 262° West  Level Estimated
12:16 68.6690 -52.5516 262° West  Level Estimated
12:17 68.6494 -52.9046 262° West  Level Estimated
12:18 68.6292 -53.2570 261° West  Level Estimated
12:19 68.6081 -53.6088 261° West  Level Estimated
12:20 68.5864 -53.9598 261° West  Level Estimated
12:21 68.5639 -54.3102 260° West  Level Estimated
12:22 68.5407 -54.6599 260° West  Level Estimated
12:23 68.5168 -55.0089 260° West  Level Estimated
12:24 68.4921 -55.3571 259° West  Level Estimated
12:25 68.4667 -55.7045 259° West  Level Estimated
12:26 68.4406 -56.0511 259° West  Level Estimated
12:27 68.4138 -56.3970 258° West  Level Estimated
12:28 68.3863 -56.7420 258° West  Level Estimated
12:29 68.3581 -57.0861 258° West  Level Estimated
12:30 68.3291 -57.4294 257° West  Level Estimated
12:31 68.2995 -57.7718 257° West  Level Estimated
12:32 68.2691 -58.1133 257° West  Level Estimated
12:33 68.2381 -58.4539 256° West  Level Estimated
12:34 68.2064 -58.7936 256° West  Level Estimated
12:35 68.1739 -59.1323 256° West  Level Estimated
12:36 68.1408 -59.4700 255° West  Level Estimated
12:37 68.1070 -59.8068 255° West  Level Estimated
12:38 68.0725 -60.1426 255° West  Level Estimated
12:39 68.0374 -60.4773 254° West  Level Estimated
12:40 68.0015 -60.8110 254° West  Level Estimated
12:41 67.9650 -61.1437 254° West  Level Estimated
12:42 67.9278 -61.4753 254° West  Level Estimated
12:43 67.8890 -61.8142 253° West  Level Estimated
12:44 67.8495 -62.1519 253° West  Level Estimated
12:45 67.8093 -62.4884 253° West  Level Estimated
12:46 67.7684 -62.8238 252° West  Level Estimated
12:47 67.7268 -63.1580 252° West  Level Estimated
12:48 67.6846 -63.4910 252° West  Level Estimated
12:49 67.6416 -63.8228 251° West  Level Estimated
12:50 67.5980 -64.1534 251° West  Level Estimated
12:51 67.5537 -64.4828 251° West  Level Estimated
12:52 67.5088 -64.8109 250° West  Level Estimated
12:53 67.4632 -65.1378 250° West  Level Estimated
12:54 67.4169 -65.4634 250° West  Level Estimated
12:55 67.3700 -65.7877 250° West  Level Estimated
12:56 67.3225 -66.1108 249° West  Level Estimated
12:57 67.2743 -66.4325 249° West  Level Estimated
12:58 67.2254 -66.7530 249° West  Level Estimated
12:59 67.1759 -67.0722 248° West  Level Estimated
13:00 67.1258 -67.3900 248° West  Level Estimated
13:01 67.0751 -67.7066 248° West  Level Estimated
13:02 67.0237 -68.0218 247° West  Level Estimated
13:03 66.9717 -68.3356 247° West  Level Estimated
13:04 66.9191 -68.6481 247° West  Level Estimated
13:05 66.8659 -68.9593 247° West  Level Estimated
13:06 66.8120 -69.2691 246° West  Level Estimated
13:07 66.7576 -69.5775 246° West  Level Estimated
13:08 66.7026 -69.8846 246° West  Level Estimated
13:09 66.6469 -70.1903 245° Southwest  Level Estimated
13:10 66.5907 -70.4946 245° Southwest  Level Estimated
13:11 66.5339 -70.7975 245° Southwest  Level Estimated
13:12 66.4765 -71.0991 245° Southwest  Level Estimated
13:13 66.4186 -71.3992 244° Southwest  Level Estimated
13:14 66.3600 -71.6980 244° Southwest  Level Estimated
13:15 66.3009 -71.9954 244° Southwest  Level Estimated
13:16 66.2412 -72.2913 244° Southwest  Level Estimated
13:17 66.1810 -72.5859 243° Southwest  Level Estimated
13:18 66.1202 -72.8790 243° Southwest  Level Estimated
13:19 66.0589 -73.1708 243° Southwest  Level Estimated
13:20 65.9970 -73.4611 242° Southwest  Level Estimated
13:21 65.9345 -73.7500 242° Southwest  Level Estimated
13:22 65.8715 -74.0375 242° Southwest  Level Estimated
13:23 65.8080 -74.3236 242° Southwest  Level Estimated
13:24 65.7440 -74.6083 241° Southwest  Level Estimated
13:25 65.6794 -74.8916 241° Southwest  Level Estimated
13:26 65.6143 -75.1734 241° Southwest  Level Estimated
13:27 65.5487 -75.4539 241° Southwest  Level Estimated
13:28 65.4826 -75.7329 240° Southwest  Level Estimated
13:29 65.4159 -76.0105 240° Southwest  Level Estimated
13:30 65.3488 -76.2867 240° Southwest  Level Estimated
13:31 65.2811 -76.5615 240° Southwest  Level Estimated
13:32 65.2130 -76.8348 239° Southwest  Level Estimated
13:33 65.1443 -77.1068 239° Southwest  Level Estimated
13:34 65.0752 -77.3773 239° Southwest  Level Estimated
13:35 65.0056 -77.6465 239° Southwest  Level Estimated
13:36 64.9355 -77.9142 238° Southwest  Level Estimated
13:37 64.8649 -78.1806 238° Southwest  Level Estimated
13:38 64.7939 -78.4455 238° Southwest  Level Estimated
13:39 64.7224 -78.7091 238° Southwest  Level Estimated
13:40 64.6504 -78.9712 237° Southwest  Level Estimated
13:41 64.5779 -79.2320 237° Southwest  Level Estimated
13:42 64.5050 -79.4913 237° Southwest  Level Estimated
13:43 64.4317 -79.7493 237° Southwest  Level Estimated
13:44 64.3579 -80.0059 236° Southwest  Level Estimated
13:45 64.2836 -80.2612 236° Southwest  Level Estimated
13:46 64.2089 -80.5150 236° Southwest  Level Estimated
13:47 64.1338 -80.7675 236° Southwest  Level Estimated
13:48 64.0582 -81.0186 236° Southwest  Level Estimated
13:49 63.9822 -81.2684 235° Southwest  Level Estimated
13:50 63.9058 -81.5168 235° Southwest  Level Estimated
13:51 63.8289 -81.7638 235° Southwest  Level Estimated
13:52 63.7517 -82.0095 235° Southwest  Level Estimated
13:53 63.6740 -82.2539 234° Southwest  Level Estimated
13:54 63.5959 -82.4969 234° Southwest  Level Estimated
13:55 63.5174 -82.7386 234° Southwest  Level Estimated
13:56 63.4385 -82.9789 234° Southwest  Level Estimated
13:57 63.3592 -83.2179 234° Southwest  Level Estimated
13:58 63.2795 -83.4557 233° Southwest  Level Estimated
13:59 63.1994 -83.6920 233° Southwest  Level Estimated
14:00 63.1189 -83.9271 233° Southwest  Level Estimated
14:01 63.0380 -84.1609 233° Southwest  Level Estimated
14:02 62.9567 -84.3934 233° Southwest  Level Estimated
14:03 62.8751 -84.6246 232° Southwest  Level Estimated
14:04 62.7931 -84.8545 232° Southwest  Level Estimated
14:05 62.7107 -85.0832 232° Southwest  Level Estimated
14:06 62.6279 -85.3105 232° Southwest  Level Estimated
14:07 62.5448 -85.5366 231° Southwest  Level Estimated
14:08 62.4613 -85.7614 231° Southwest  Level Estimated
14:09 62.3775 -85.9850 231° Southwest  Level Estimated
14:10 62.2933 -86.2073 231° Southwest  Level Estimated
14:11 62.2087 -86.4284 231° Southwest  Level Estimated
14:12 62.1238 -86.6482 231° Southwest  Level Estimated
14:13 62.0386 -86.8669 230° Southwest  Level Estimated
14:14 61.9529 -87.0842 230° Southwest  Level Estimated
14:15 61.8670 -87.3004 230° Southwest  Level Estimated
14:16 61.7807 -87.5154 230° Southwest  Level Estimated
14:17 61.6941 -87.7291 230° Southwest  Level Estimated
14:18 61.6072 -87.9417 229° Southwest  Level Estimated
14:19 61.5199 -88.1530 229° Southwest  Level Estimated
14:20 61.4323 -88.3632 229° Southwest  Level Estimated
14:21 61.3444 -88.5722 229° Southwest  Level Estimated
14:22 61.2562 -88.7800 229° Southwest  Level Estimated
14:23 61.1676 -88.9867 228° Southwest  Level Estimated
14:24 61.0788 -89.1922 228° Southwest  Level Estimated
14:25 60.9896 -89.3965 228° Southwest  Level Estimated
14:26 60.9001 -89.5997 228° Southwest  Level Estimated
14:27 60.8103 -89.8018 228° Southwest  Level Estimated
14:28 60.7202 -90.0027 228° Southwest  Level Estimated
14:29 60.6298 -90.2025 227° Southwest  Level Estimated
14:30 60.5392 -90.4012 227° Southwest  Level Estimated
14:31 60.4482 -90.5987 227° Southwest  Level Estimated
14:32 60.3569 -90.7952 227° Southwest  Level Estimated
14:33 60.2654 -90.9906 227° Southwest  Level Estimated
14:34 60.1735 -91.1849 226° Southwest  Level Estimated
14:35 60.0814 -91.3781 226° Southwest  Level Estimated
14:36 59.9890 -91.5702 226° Southwest  Level Estimated
14:37 59.8963 -91.7612 226° Southwest  Level Estimated
14:38 59.8034 -91.9512 226° Southwest  Level Estimated
14:39 59.7101 -92.1401 226° Southwest  Level Estimated
14:40 59.6166 -92.3280 226° Southwest  Level Estimated
14:41 59.5229 -92.5148 225° Southwest  Level Estimated
14:42 59.4288 -92.7006 225° Southwest  Level Estimated
14:43 59.3346 -92.8853 225° Southwest  Level Estimated
14:44 59.2400 -93.0691 225° Southwest  Level Estimated
14:45 59.1452 -93.2518 225° Southwest  Level Estimated
14:46 59.0501 -93.4335 225° Southwest  Level Estimated
14:47 58.9548 -93.6142 224° Southwest  Level Estimated
14:48 58.8592 -93.7939 224° Southwest  Level Estimated
14:49 58.7634 -93.9726 224° Southwest  Level Estimated
14:50 58.6674 -94.1503 224° Southwest  Level Estimated
14:51 58.5711 -94.3271 224° Southwest  Level Estimated
14:52 58.4745 -94.5029 224° Southwest  Level Estimated
14:53 58.3778 -94.6777 223° Southwest  Level Estimated
14:54 58.2807 -94.8515 223° Southwest  Level Estimated
14:55 58.1835 -95.0244 223° Southwest  Level Estimated
14:56 58.0860 -95.1964 223° Southwest  Level Estimated
14:56 59.9167 -99.2667 222° Southwest 440 506 36,000  Level Edmonton Center
14:57 57.9883 -95.3674 223° Southwest  Level Estimated
14:57 59.8167 -99.4167 217° Southwest 440 506 36,000  Level Edmonton Center
14:58 57.8903 -95.5375 223° Southwest  Level Estimated
14:58 59.7167 -99.5333 210° Southwest 430 495 36,000  Level Edmonton Center
14:59 57.7921 -95.7067 223° Southwest  Level Estimated
14:59 59.6167 -99.6500 211° Southwest 440 506 36,000  Level Edmonton Center
15:00 57.6937 -95.8749 222° Southwest  Level Estimated
15:00 59.5000 -99.7667 207° Southwest 450 518 36,000  Level Edmonton Center
15:01 57.5951 -96.0423 222° Southwest  Level Estimated
15:01 59.3833 -99.8833 207° Southwest 440 506 36,000  Level Edmonton Center
15:02 57.4963 -96.2087 222° Southwest  Level Estimated
15:02 59.2833 -100.0000 211° Southwest 440 506 36,000  Level Edmonton Center
15:03 59.1667 -100.1167 207° Southwest 450 518 36,000  Level Edmonton Center
15:04 59.0500 -100.2333 207° Southwest 450 518 36,000  Level Edmonton Center
15:05 58.9333 -100.3500 207° Southwest 460 529 36,000  Level Edmonton Center
15:06 58.8333 -100.4333 203° Southwest 450 518 36,000  Level Edmonton Center
15:07 58.7167 -100.5500 207° Southwest 460 529 36,000  Level Edmonton Center
15:08 58.5833 -100.6667 205° Southwest 460 529 36,000  Level Edmonton Center
15:09 58.4667 -100.7667 204° Southwest 460 529 36,000  Level Edmonton Center
15:10 58.3500 -100.8833 208° Southwest 460 529 36,000  Level Edmonton Center
15:11 58.2833 -101.0000 223° Southwest 470 541 36,000  Level Winnipeg Center
15:12 58.1667 -101.1167 208° Southwest 470 541 36,000  Level Winnipeg Center
15:12 58.1000 -101.1000 172° South 460 529 36,000  Level Edmonton Center
15:13 57.9833 -101.2167 208° Southwest 470 541 36,000  Level Edmonton Center
15:14 57.8667 -101.3167 205° Southwest 470 541 36,000  Level Edmonton Center
15:15 57.7500 -101.4333 208° Southwest 470 541 36,000  Level Edmonton Center
15:16 57.6167 -101.5333 202° Southwest 480 552 36,000  Level Edmonton Center
15:17 57.5167 -101.6167 204° Southwest 460 529 36,000  Level Edmonton Center
15:18 57.3833 -101.7167 202° Southwest 470 541 36,000  Level Edmonton Center
15:19 57.2667 -101.8167 205° Southwest 470 541 36,000  Level Edmonton Center
15:20 57.1333 -101.9333 205° Southwest 470 541 36,000  Level Edmonton Center
15:22 56.9500 -102.1500 213° Southwest 480 552 36,000  Level Winnipeg Center
15:23 56.8333 -102.2167 197° South 480 552 36,000  Level Winnipeg Center
15:23 56.7833 -102.2333 190° South 470 541 36,000  Level Edmonton Center
15:24 56.6500 -102.3333 202° Southwest 470 541 36,000  Level Edmonton Center
15:25 56.5333 -102.4333 205° Southwest 480 552 36,000  Level Edmonton Center
15:26 56.4167 -102.5333 205° Southwest 480 552 36,000  Level Edmonton Center
15:27 56.3500 -102.6333 220° Southwest 480 552 36,000  Level Winnipeg Center
15:28 56.2167 -102.7500 206° Southwest 480 552 36,000  Level Winnipeg Center
15:29 56.1000 -102.8500 206° Southwest 490 564 36,000  Level Winnipeg Center
15:30 55.9833 -102.9500 206° Southwest 490 564 36,000  Level Winnipeg Center
15:31 55.8333 -103.0500 201° Southwest 490 564 36,000  Level Winnipeg Center
15:32 55.7167 -103.1500 206° Southwest 490 564 36,000  Level Winnipeg Center
15:32 55.6667 -103.1333 169° South 480 552 36,000  Level Edmonton Center
15:33 55.6000 -103.2167 215° Southwest 490 564 36,000  Level Winnipeg Center
15:34 55.4833 -103.3167 206° Southwest 490 564 36,000  Level Winnipeg Center
15:35 55.3500 -103.4167 203° Southwest 490 564 36,000  Level Winnipeg Center
15:36 55.2333 -103.5167 206° Southwest 490 564 36,000  Level Winnipeg Center
15:37 55.0833 -103.6167 201° Southwest 490 564 36,000  Level Winnipeg Center
15:38 54.9667 -103.7000 202° Southwest 490 564 36,000  Level Winnipeg Center
15:39 54.8500 -103.8000 206° Southwest 500 575 36,000  Level Winnipeg Center
15:39 54.7833 -103.7833 172° South 490 564 36,000  Level Edmonton Center
15:40 54.6667 -103.9167 213° Southwest 490 564 36,000  Level Edmonton Center
15:41 54.5500 -104.0333 210° Southwest 490 564 36,000  Level Edmonton Center
15:42 54.4333 -104.1167 203° Southwest 490 564 36,000  Level Edmonton Center
15:43 54.3500 -104.2333 219° Southwest 500 575 36,000  Level Winnipeg Center
15:44 54.2167 -104.3667 210° Southwest 500 575 36,000  Level Winnipeg Center
15:45 54.1167 -104.4833 214° Southwest 490 564 36,000  Level Winnipeg Center
15:46 54.0000 -104.5833 207° Southwest 490 564 36,000  Level Winnipeg Center
15:47 53.8667 -104.7000 207° Southwest 490 564 36,000  Level Winnipeg Center
15:48 53.7667 -104.8167 215° Southwest 490 564 36,000  Level Winnipeg Center
15:49 53.6333 -104.9167 204° Southwest 500 575 36,000  Level Winnipeg Center
15:50 53.5167 -105.0333 211° Southwest 490 564 36,000  Level Winnipeg Center
15:51 53.3833 -105.1500 208° Southwest 500 575 36,000  Level Winnipeg Center
15:52 53.2667 -105.2667 211° Southwest 500 575 36,000  Level Winnipeg Center
15:53 53.1333 -105.3500 201° Southwest 500 575 36,000  Level Winnipeg Center
15:54 53.0333 -105.4667 215° Southwest 500 575 36,000  Level Winnipeg Center
15:55 52.9000 -105.5833 208° Southwest 500 575 36,000  Level Winnipeg Center
15:56 52.7833 -105.6667 203° Southwest 500 575 36,000  Level Winnipeg Center
15:57 52.6500 -105.7833 208° Southwest 500 575 36,000  Level Winnipeg Center
15:58 52.5167 -105.9000 208° Southwest 500 575 36,000  Level Winnipeg Center
15:59 52.4000 -106.0000 208° Southwest 500 575 36,000  Level Winnipeg Center
16:05 51.7580 -106.5290 208° Southwest 504 580 36,000  Level FlightAware
16:05 51.6910 -106.5830 207° Southwest 505 581 36,000  Level FlightAware
16:06 51.5970 -106.6600 207° Southwest 504 580 36,000  Level FlightAware
16:07 51.5080 -106.7330 207° Southwest 504 580 36,000  Level FlightAware
16:08 51.4070 -106.8150 207° Southwest 506 582 36,000  Level FlightAware
16:08 51.3020 -106.9000 207° Southwest 508 585 36,000  Level FlightAware
16:09 51.1890 -106.9890 206° Southwest 508 585 36,000  Level FlightAware
16:10 51.0880 -107.0720 207° Southwest 510 587 36,000  Level FlightAware
16:11 50.9960 -107.1450 207° Southwest 510 587 36,000  Level FlightAware
16:11 50.9050 -107.2170 207° Southwest 509 586 36,000  Level FlightAware
16:12 50.8150 -107.2880 206° Southwest 510 587 36,000  Level FlightAware
16:13 50.7160 -107.3660 207° Southwest 511 588 36,000  Level FlightAware
16:14 50.6250 -107.4370 206° Southwest 511 588 36,000  Level FlightAware
16:14 50.5280 -107.5130 206° Southwest 511 588 36,000  Level FlightAware
16:15 50.4480 -107.5750 206° Southwest 511 588 36,000  Level FlightAware
16:16 50.3210 -107.6750 207° Southwest 512 589 36,000  Level FlightAware
16:17 50.2270 -107.7820 216° Southwest 513 590 36,000  Level FlightAware
16:18 50.1620 -107.8570 216° Southwest 513 590 36,000  Level FlightAware
16:18 50.0980 -107.9330 217° Southwest 513 590 36,000  Level FlightAware
16:19 50.0340 -108.0090 217° Southwest 513 590 36,000  Level FlightAware
16:20 49.9530 -108.1030 217° Southwest 513 590 36,000  Level FlightAware
16:20 49.8890 -108.1790 217° Southwest 513 590 36,000  Level FlightAware
16:21 49.8240 -108.2540 217° Southwest 513 590 36,000  Level FlightAware
16:22 49.7440 -108.3480 217° Southwest 513 590 36,000  Level FlightAware
16:23 49.6790 -108.4230 217° Southwest 513 590 36,000  Level FlightAware
16:23 49.6150 -108.4980 217° Southwest 513 590 36,000  Level FlightAware
16:24 49.5500 -108.5730 217° Southwest 513 590 36,000  Level FlightAware
16:25 49.4860 -108.6480 217° Southwest 513 590 36,000  Level FlightAware
16:25 49.4050 -108.7410 217° Southwest 513 590 36,000  Level FlightAware
16:26 49.1960 -109.1990 235° Southwest 519 597 36,000  Level FlightAware
16:27 49.1020 -109.3250 221° Southwest 520 598 36,000  Level FlightAware
16:28 49.0120 -109.4420 220° Southwest 528 608 36,000  Level FlightAware
16:28 48.9370 -109.5400 221° Southwest 528 608 36,000  Level FlightAware
16:29 48.8530 -109.6500 221° Southwest 528 608 36,000  Level FlightAware
16:30 48.7900 -109.7330 221° Southwest 529 609 36,000  Level FlightAware
16:31 48.6980 -109.8500 220° Southwest 528 608 36,000  Level FlightAware
16:31 48.6190 -109.9510 220° Southwest 528 608 36,000  Level FlightAware
16:32 48.5550 -110.0320 220° Southwest 528 608 36,000  Level FlightAware
16:33 48.4920 -110.1130 220° Southwest 528 608 36,000  Level FlightAware
16:33 48.4280 -110.1930 220° Southwest 528 608 36,000  Level FlightAware
16:34 48.3640 -110.2730 220° Southwest 528 608 36,000  Level FlightAware
16:35 48.2850 -110.3740 220° Southwest 528 608 36,000  Level FlightAware
16:36 48.2210 -110.4540 220° Southwest 528 608 36,000  Level FlightAware
16:36 48.1580 -110.5340 220° Southwest 528 608 36,000  Level FlightAware
16:37 48.0940 -110.6140 220° Southwest 528 608 36,000  Level FlightAware
16:38 48.0300 -110.6940 220° Southwest 528 608 36,000  Level FlightAware
16:38 47.9510 -110.7940 220° Southwest 528 608 36,000  Level FlightAware
16:39 47.8870 -110.8730 220° Southwest 528 608 36,000  Level FlightAware
16:40 47.8230 -110.9530 220° Southwest 528 608 36,000  Level FlightAware
16:40 47.5667 -111.2333 220° Southwest 530 610 36,000  Level Edmonton Center
16:41 47.5000 -111.3667 234° Southwest 530 610 36,000  Level Winnipeg Center
16:41 47.4767 -111.3794 200° South 534 615 36,000  Level Salt Lake Center
16:42 47.3597 -111.5178 219° Southwest 537 618 36,000  Level Salt Lake Center
16:43 47.2428 -111.6528 218° Southwest 535 616 36,000  Level Salt Lake Center
16:44 47.1272 -111.7861 218° Southwest 533 613 36,000  Level Salt Lake Center
16:45 47.0119 -111.9189 218° Southwest 528 608 36,000  Level Salt Lake Center
16:47 46.9057 -112.0376 217° Southwest  Level FlightAware Approximate
16:48 46.7583 -112.2078 217° Southwest 527 606 36,000  Level Salt Lake Center
16:49 46.6419 -112.3369 217° Southwest 527 606 36,000  Level Salt Lake Center
16:50 46.5264 -112.4661 218° Southwest 526 605 36,000  Level Salt Lake Center
16:51 46.4125 -112.5919 217° Southwest 526 605 36,000  Level Salt Lake Center
16:52 46.2978 -112.7175 217° Southwest 522 601 36,000  Level Salt Lake Center
16:53 46.1603 -112.8689 217° Southwest 520 598 36,000  Level Salt Lake Center
16:54 46.0461 -112.9925 217° Southwest 517 595 36,000  Level Salt Lake Center
16:55 45.9328 -113.1150 217° Southwest 512 589 36,000  Level Salt Lake Center
16:56 45.8194 -113.2375 217° Southwest 513 590 36,000  Level Salt Lake Center
16:57 45.7075 -113.3578 217° Southwest 507 583 36,000  Level Salt Lake Center
16:58 45.5958 -113.4772 217° Southwest 503 579 36,000  Level Salt Lake Center
16:59 45.4697 -113.6097 216° Southwest 506 582 36,000  Level Salt Lake Center
17:00 45.3625 -113.7239 217° Southwest 504 580 36,000  Level Salt Lake Center
17:01 45.2464 -113.8461 217° Southwest 502 578 36,000  Level Salt Lake Center
17:02 45.1231 -113.9761 217° Southwest 498 573 36,000  Level Salt Lake Center
17:03 45.0081 -114.0953 216° Southwest 493 567 36,000  Level Salt Lake Center
17:04 44.9011 -114.2047 216° Southwest 496 571 36,000  Level Salt Lake Center
17:05 44.7764 -114.3286 215° Southwest 491 565 36,000  Level Salt Lake Center
17:06 44.6692 -114.4358 215° Southwest 493 567 36,000 600 Level Salt Lake Center
17:07 44.5633 -114.5431 216° Southwest 491 565 37,300 960 Climbing Salt Lake Center
17:08 44.4397 -114.6656 215° Southwest 488 562 38,000 300 Climbing Salt Lake Center
17:09 44.3347 -114.7686 215° Southwest 483 556 38,000  Level Salt Lake Center
17:10 44.2114 -114.8900 215° Southwest 483 556 38,000  Level Salt Lake Center
17:11 44.1061 -114.9939 215° Southwest 484 557 38,000  Level Salt Lake Center
17:12 43.9861 -115.0700 205° Southwest 483 556 38,000  Level Salt Lake Center
17:13 43.8486 -115.1503 203° Southwest 482 555 38,000  Level Salt Lake Center
17:15 43.7138 -115.2824 215° Southwest  Level FlightAware Approximate
17:15 43.6203 -115.3678 215° Southwest 478 550 38,000  Level Salt Lake Center
17:16 43.5228 -115.4633 215° Southwest 479 551 38,000  Level Salt Lake Center
17:18 43.3964 -115.5860 215° Southwest  Level FlightAware Approximate
17:18 43.3078 -115.6736 215° Southwest 475 547 38,000  Level Salt Lake Center
17:19 43.2036 -115.7744 215° Southwest 477 549 38,000  Level Salt Lake Center
17:20 43.1008 -115.8742 215° Southwest 472 543 38,000  Level Salt Lake Center
17:21 42.9789 -115.9900 215° Southwest 477 549 38,000  Level Salt Lake Center
17:22 42.8744 -116.0897 215° Southwest 477 549 38,000  Level Salt Lake Center
17:23 42.7528 -116.2056 215° Southwest 476 548 38,000  Level Salt Lake Center
17:24 42.6500 -116.3036 215° Southwest 472 543 38,000  Level Salt Lake Center
17:25 42.5278 -116.3386 192° South 465 535 38,000  Level Salt Lake Center
17:26 42.3833 -116.3556 185° South 466 536 38,000  Level Salt Lake Center
17:27 42.2600 -116.3736 186° South 465 535 38,000  Level Salt Lake Center
17:28 42.1242 -116.4469 202° Southwest 468 539 38,000  Level Salt Lake Center
17:29 42.0200 -116.5208 208° Southwest 462 532 38,000  Level Salt Lake Center
17:30 41.8906 -116.6092 207° Southwest 467 537 38,000  Level Salt Lake Center
17:32 41.7794 -116.6836 207° Southwest 463 533 38,000  Level Salt Lake Center
17:33 41.6497 -116.7714 207° Southwest 467 537 38,000  Level Salt Lake Center
17:34 41.5389 -116.8456 207° Southwest 467 537 38,000  Level Salt Lake Center
17:35 41.4078 -116.9322 206° Southwest 470 541 38,000  Level Salt Lake Center
17:36 41.2956 -117.0067 206° Southwest 469 540 38,000  Level Salt Lake Center
17:37 41.1658 -117.0925 206° Southwest 468 539 38,000  Level Salt Lake Center
17:38 41.0542 -117.1650 206° Southwest 467 537 38,000  Level Salt Lake Center
17:39 40.9256 -117.2506 207° Southwest 466 536 38,000  Level Salt Lake Center
17:40 40.8144 -117.3208 206° Southwest 463 533 38,000  Level Salt Lake Center
17:41 40.7064 -117.3919 207° Southwest 458 527 38,000  Level Salt Lake Center
17:42 40.5806 -117.4742 206° Southwest 453 521 38,000  Level Salt Lake Center
17:43 40.4722 -117.5433 206° Southwest 453 521 38,000  Level Salt Lake Center
17:44 40.3453 -117.6225 205° Southwest 454 522 38,000  Level Salt Lake Center
17:45 40.2378 -117.6914 206° Southwest 452 520 38,000  Level Salt Lake Center
17:46 40.1108 -117.7725 206° Southwest 455 524 38,000  Level Salt Lake Center
17:46 40.0683 -117.7994 206° Southwest 456 525 38,000  Level Oakland Center
17:47 39.9542 -117.8722 206° Southwest 454 522 38,000  Level Oakland Center
17:48 39.8400 -117.9439 206° Southwest 455 524 38,000  Level Oakland Center
17:49 39.7267 -118.0144 206° Southwest 449 517 38,000  Level Oakland Center
17:50 39.6161 -118.0847 206° Southwest 444 511 38,000  Level Oakland Center
17:51 39.5044 -118.1550 206° Southwest 441 507 38,000  Level Oakland Center
17:52 39.3925 -118.2247 206° Southwest 441 507 38,000  Level Oakland Center
17:53 39.2803 -118.2933 205° Southwest 441 507 38,000  Level Oakland Center
17:54 39.1686 -118.3636 206° Southwest 442 509 38,000 -180 Level Oakland Center
18:01 38.4350 -118.8100 206° Southwest 444 511 37,000 -180 Descending FlightAware
18:02 38.3710 -118.8470 204° Southwest 444 511 37,000  Level FlightAware
18:02 38.2790 -118.9030 206° Southwest 446 513 37,000  Level FlightAware
18:03 38.1930 -118.9540 205° Southwest 446 513 37,000  Level FlightAware
18:04 38.1080 -119.0060 206° Southwest 448 516 37,000  Level FlightAware
18:05 38.0250 -119.0550 205° Southwest 447 514 37,000  Level FlightAware
18:05 37.9500 -119.0990 205° Southwest 447 514 37,000  Level FlightAware
18:06 37.8640 -119.1510 206° Southwest 451 519 37,000  Level FlightAware
18:07 37.7890 -119.1950 205° Southwest 449 517 37,000  Level FlightAware
18:07 37.7140 -119.2400 205° Southwest 448 516 37,000  Level FlightAware
18:08 37.6310 -119.2880 205° Southwest 452 520 37,000  Level FlightAware
18:09 37.5560 -119.3320 205° Southwest 450 518 37,000  Level FlightAware
18:09 37.4770 -119.3790 205° Southwest 449 517 37,000  Level FlightAware
18:10 37.3930 -119.4280 205° Southwest 450 518 37,000  Level FlightAware
18:11 37.3130 -119.4590 197° South 445 512 37,000  Level FlightAware
18:12 37.2210 -119.4720 186° South 445 512 37,000  Level FlightAware
18:12 37.1380 -119.4800 184° South 446 513 37,000  Level FlightAware
18:13 37.0560 -119.4900 186° South 449 517 37,000  Level FlightAware
18:14 36.9660 -119.5000 185° South 450 518 37,000  Level FlightAware
18:14 36.8820 -119.5100 185° South 452 520 37,000  Level FlightAware
18:15 36.7870 -119.5220 186° South 448 516 37,000  Level FlightAware
18:16 36.7040 -119.5310 185° South 446 513 37,000  Level FlightAware
18:16 36.6220 -119.5410 186° South 448 516 37,000  Level FlightAware
18:17 36.5310 -119.5510 185° South 445 512 37,000  Level FlightAware
18:18 36.4370 -119.5620 185° South 447 514 37,000  Level FlightAware
18:19 36.3540 -119.5720 186° South 448 516 37,000  Level FlightAware
18:19 36.2710 -119.5820 186° South 450 518 37,000  Level FlightAware
18:20 36.1790 -119.5920 185° South 449 517 37,000  Level FlightAware
18:21 36.0980 -119.6010 185° South 449 517 37,000  Level FlightAware
18:21 36.0040 -119.6120 185° South 452 520 37,000  Level FlightAware
18:22 35.9180 -119.6170 183° South 454 522 37,000 -360 Level FlightAware
18:23 35.8040 -119.6210 182° South 459 528 36,500 -960 Descending FlightAware
18:24 35.7180 -119.6240 182° South 460 529 35,500 -1,320 Descending FlightAware
18:24 35.6200 -119.6280 182° South 454 522 34,700 -1,200 Descending FlightAware
18:25 35.5400 -119.6310 182° South 454 522 33,800 -1,440 Descending FlightAware
18:26 35.4470 -119.6570 193° South 451 519 32,700 -1,200 Descending FlightAware
18:26 35.3680 -119.6870 197° South 443 510 32,100 -1,560 Descending FlightAware
18:27 35.2780 -119.7210 197° South 456 525 30,500 -1,740 Descending FlightAware
18:28 35.1980 -119.7540 199° South 444 511 29,700 -1,200 Descending FlightAware
18:29 35.1230 -119.7840 198° South 420 483 28,900 -1,320 Descending FlightAware
18:29 35.0400 -119.8160 198° South 397 457 27,900 -900 Descending FlightAware
18:30 34.9800 -119.8380 197° South 398 458 27,700 -1,800 Descending FlightAware
18:30 34.9170 -119.8290 173° South 392 451 25,800 -2,580 Descending FlightAware
18:31 34.8600 -119.7790 144° Southeast 401 461 24,700 -1,380 Descending FlightAware
18:32 34.8110 -119.6910 124° Southeast 403 464 23,900 -1,320 Descending FlightAware
18:33 34.7700 -119.6150 123° Southeast 408 470 22,900 -960 Descending FlightAware
18:33 34.7290 -119.5390 123° Southeast 412 474 22,600 -2,160 Descending FlightAware
18:34 34.6810 -119.4570 125° Southeast 408 470 19,900 -3,180 Descending FlightAware
18:35 34.6380 -119.3790 124° Southeast 402 463 18,400 -2,160 Descending FlightAware
18:35 34.5920 -119.2980 125° Southeast 397 457 16,900 -2,100 Descending FlightAware
18:36 34.5510 -119.2250 124° Southeast 393 452 15,500 -1,980 Descending FlightAware
18:37 34.5050 -119.1430 124° Southeast 384 442 14,100 -1,560 Descending FlightAware
18:37 34.4650 -119.0710 124° Southeast 363 418 13,300 -1,320 Descending FlightAware
18:38 34.4280 -119.0090 126° Southeast 350 403 12,400 -1,320 Descending FlightAware
18:38 34.4120 -118.9930 140° Southeast 338 389 12,100 -300 Descending FlightAware
18:39 34.3580 -118.9490 146° Southeast 338 389 12,100  Level FlightAware
18:40 34.3140 -118.9130 146° Southeast 338 389 12,100 -1,200 Level FlightAware
18:42 34.1660 -118.8140 151° Southeast 266 306 8,500 -1,320 Descending FlightAware
18:43 34.1380 -118.8160 183° South 266 306 8,500 -1,800 Level FlightAware
18:43 34.1060 -118.8250 193° South 245 282 7,300 -2,400 Descending FlightAware
18:43 34.0760 -118.8410 204° Southwest 229 264 6,700 -1,140 Descending FlightAware
18:44 34.0490 -118.8570 206° Southwest 206 237 6,200 -720 Descending FlightAware
18:44 34.0330 -118.8670 207° Southwest 200 230 6,100 -300 Descending FlightAware
18:45 34.0070 -118.8820 206° Southwest 193 222 5,900 -900 Descending FlightAware
18:45 33.9740 -118.9020 207° Southwest 190 219 5,000 -1,020 Descending FlightAware
18:46 33.9550 -118.9130 206° Southwest 188 216 5,000  Level FlightAware
18:46 33.9400 -118.9120 177° South 186 214 5,000 -240 Level FlightAware
18:46 33.9320 -118.9040 140° Southeast 194 223 4,900 -600 Descending FlightAware
18:47 33.9250 -118.8860 115° Southeast 193 222 4,700 -900 Descending FlightAware
18:47 33.9190 -118.8660 110° East 185 213 4,400 -900 Descending FlightAware
18:47 33.9090 -118.8330 110° East 182 209 3,900 -1,080 Descending FlightAware
18:48 33.9120 -118.7920 85° East 187 215 3,100 -780 Descending FlightAware
18:49 33.9140 -118.7680 84° East 188 216 3,100 -120 Level FlightAware
18:49 33.9180 -118.7290 83° East 193 222 3,000 -120 Descending FlightAware
18:50 33.9230 -118.6860 82° East 193 222 3,000  Level FlightAware
18:50 33.9260 -118.6530 84° East 191 220 3,000  Level FlightAware
18:51 33.9280 -118.6330 83° East 183 211 3,000  Level FlightAware
18:51 33.9310 -118.6020 83° East 186 214 3,000 -660 Level FlightAware
18:52 33.9350 -118.5660 82° East 189 217 2,300 -1,080 Descending FlightAware
18:52 33.9370 -118.5520 80° East 190 219 2,100 -900 Descending FlightAware
18:52 33.9390 -118.5270 84° East 176 203 1,700 -600 Descending FlightAware
18:53 33.9430 -118.4910 82° East 166 191 1,500 -840 Descending FlightAware
18:54 33.9469 -118.4569 82° East 145 167 600 -840 Descending Los Angeles Center
18:55 33.9525 -118.4164 81° East 143 165 100 -540 Descending Los Angeles Center
18:57 33.9425 -118.4081 83° East  Level Estimated